createdAt,value
2022-08-11T00:00:33.742Z,100935.13
2022-08-11T00:03:08.211Z,100928.22
2022-08-11T00:05:56.503Z,100917.50
2022-08-11T00:08:29.049Z,100919.47
2022-08-11T00:10:58.806Z,100914.06
2022-08-11T00:13:37.054Z,100919.22
2022-08-11T00:16:11.150Z,100914.81
2022-08-11T00:18:43.652Z,100912.34
2022-08-11T00:21:11.692Z,100913.81
2022-08-11T00:23:44.058Z,100914.09
2022-08-11T00:26:12.130Z,100918.75
2022-08-11T00:28:39.162Z,100922.66
2022-08-11T00:31:20.415Z,100908.38
2022-08-11T00:33:49.365Z,100929.19
2022-08-11T00:36:22.065Z,100910.09
2022-08-11T00:38:53.847Z,100918.66
2022-08-11T00:41:24.130Z,100926.38
2022-08-11T00:44:19.817Z,100922.81
2022-08-11T00:47:10.358Z,100899.47
2022-08-11T00:49:57.608Z,100926.13
2022-08-11T00:52:44.426Z,100918.53
2022-08-11T00:55:23.185Z,100882.97
2022-08-11T00:58:22.536Z,100917.06
2022-08-11T01:01:03.057Z,100917.31
2022-08-11T01:03:47.812Z,100919.00
2022-08-11T01:06:38.268Z,100926.50
2022-08-11T01:09:28.142Z,100899.13
2022-08-11T01:12:15.745Z,100917.44
2022-08-11T01:15:07.214Z,100917.31
2022-08-11T01:18:10.574Z,100929.19
2022-08-11T01:21:07.906Z,100931.28
2022-08-11T01:24:02.605Z,100936.28
2022-08-11T01:26:57.596Z,100936.84
2022-08-11T01:29:26.834Z,100924.88
2022-08-11T01:32:08.289Z,100942.38
2022-08-11T01:35:16.883Z,100934.66
2022-08-11T01:38:20.245Z,100936.84
2022-08-11T01:41:26.326Z,100931.56
2022-08-11T01:44:28.263Z,100941.00
2022-08-11T01:47:33.506Z,100934.66
2022-08-11T01:50:23.306Z,100931.34
2022-08-11T01:53:27.372Z,100941.22
2022-08-11T01:56:16.283Z,100930.72
2022-08-11T01:58:53.755Z,100915.03
2022-08-11T02:01:45.625Z,100908.69
2022-08-11T02:04:17.953Z,100937.91
2022-08-11T02:06:58.486Z,100939.75
2022-08-11T02:09:49.826Z,100944.38
2022-08-11T02:12:42.678Z,100944.38
2022-08-11T02:15:28.480Z,100946.22
2022-08-11T02:18:10.427Z,100949.88
2022-08-11T02:21:07.298Z,100942.66
2022-08-11T02:24:05.344Z,100936.56
2022-08-11T02:26:40.082Z,100947.81
2022-08-11T02:29:21.432Z,100942.78
2022-08-11T02:32:34.481Z,100939.50
2022-08-11T02:35:13.287Z,100937.78
2022-08-11T02:38:07.676Z,100942.31
2022-08-11T02:40:53.342Z,100940.94
2022-08-11T02:43:31.933Z,100939.69
2022-08-11T02:46:18.774Z,100934.91
2022-08-11T02:49:17.173Z,100940.63
2022-08-11T02:52:22.034Z,100947.34
2022-08-11T02:55:44.537Z,100945.88
2022-08-11T02:58:27.849Z,100940.72
2022-08-11T03:01:13.107Z,100940.31
2022-08-11T03:04:07.076Z,100939.78
2022-08-11T03:06:49.452Z,100940.88
2022-08-11T03:09:43.217Z,100943.91
2022-08-11T03:12:53.707Z,100937.06
2022-08-11T03:15:46.523Z,100936.75
2022-08-11T03:18:18.909Z,100933.81
2022-08-11T03:20:58.647Z,100930.59
2022-08-11T03:23:33.768Z,100924.91
2022-08-11T03:26:24.327Z,100931.69
2022-08-11T03:29:05.086Z,100932.53
2022-08-11T03:31:49.628Z,100933.63
2022-08-11T03:34:21.986Z,100939.41
2022-08-11T03:37:44.066Z,100934.88
2022-08-11T03:40:39.362Z,100912.94
2022-08-11T03:43:50.136Z,100940.06
2022-08-11T03:46:45.426Z,100937.84
2022-08-11T03:49:29.857Z,100910.09
2022-08-11T03:52:20.572Z,100915.47
2022-08-11T03:55:21.972Z,100931.78
2022-08-11T03:58:29.689Z,100943.59
2022-08-11T04:01:22.120Z,100929.03
2022-08-11T04:04:09.888Z,100951.03
2022-08-11T04:07:10.670Z,100948.88
2022-08-11T04:09:50.128Z,100949.19
2022-08-11T04:12:47.854Z,100947.59
2022-08-11T04:16:00.918Z,100950.38
2022-08-11T04:19:03.464Z,100953.81
2022-08-11T04:21:54.091Z,100953.91
2022-08-11T04:24:58.159Z,100949.63
2022-08-11T04:27:50.225Z,100951.34
2022-08-11T04:30:42.339Z,100928.41
2022-08-11T04:33:56.554Z,100947.91
2022-08-11T04:36:59.977Z,100947.25
2022-08-11T04:40:11.501Z,100947.25
2022-08-11T04:43:17.864Z,100931.84
2022-08-11T04:46:08.581Z,100942.75
2022-08-11T04:49:26.233Z,100953.91
2022-08-11T04:52:38.501Z,100957.34
2022-08-11T04:55:51.706Z,100946.19
2022-08-11T04:59:00.230Z,100934.19
2022-08-11T05:01:48.441Z,100956.69
2022-08-11T05:04:52.062Z,100954.03
2022-08-11T05:07:43.246Z,100954.78
2022-08-11T05:10:49.149Z,100959.94
2022-08-11T05:13:49.173Z,100946.84
2022-08-11T05:16:38.342Z,100961.44
2022-08-11T05:19:23.697Z,100956.28
2022-08-11T05:22:14.635Z,100968.84
2022-08-11T05:25:04.665Z,100943.50
2022-08-11T05:27:59.410Z,100970.00
2022-08-11T05:30:49.352Z,100968.91
2022-08-11T05:33:49.544Z,100963.13
2022-08-11T05:36:27.412Z,100970.72
2022-08-11T05:39:18.550Z,100979.06
2022-08-11T05:42:03.952Z,100982.03
2022-08-11T05:44:50.102Z,100966.47
2022-08-11T05:47:45.994Z,100974.69
2022-08-11T05:50:34.068Z,100980.16
2022-08-11T05:53:23.525Z,100978.38
2022-08-11T05:56:10.723Z,100953.44
2022-08-11T05:58:42.562Z,100973.38
2022-08-11T06:01:11.952Z,100983.19
2022-08-11T06:04:00.666Z,100973.44
2022-08-11T06:06:29.410Z,100983.22
2022-08-11T06:08:58.698Z,100983.75
2022-08-11T06:11:43.891Z,100982.81
2022-08-11T06:14:12.582Z,100982.50
2022-08-11T06:16:41.690Z,100979.69
2022-08-11T06:19:09.034Z,100981.16
2022-08-11T06:21:36.770Z,100984.56
2022-08-11T06:24:11.214Z,100981.22
2022-08-11T06:26:55.112Z,100973.69
2022-08-11T06:29:37.465Z,100983.94
2022-08-11T06:32:06.256Z,100964.16
2022-08-11T06:35:01.762Z,100979.13
2022-08-11T06:38:00.633Z,100967.16
2022-08-11T06:41:07.676Z,100977.16
2022-08-11T06:44:06.803Z,100976.28
2022-08-11T06:46:38.988Z,100958.38
2022-08-11T06:49:27.890Z,100979.72
2022-08-11T06:52:04.373Z,100982.03
2022-08-11T06:54:36.390Z,100986.28
2022-08-11T06:57:30.751Z,100973.16
2022-08-11T07:00:18.297Z,100967.88
2022-08-11T07:02:52.151Z,100971.00
2022-08-11T07:06:00.613Z,100973.63
2022-08-11T07:09:09.969Z,100981.78
2022-08-11T07:12:19.717Z,100973.34
2022-08-11T07:15:11.065Z,100967.22
2022-08-11T07:18:11.557Z,100954.19
2022-08-11T07:21:02.307Z,100981.22
2022-08-11T07:23:53.235Z,100974.53
2022-08-11T07:26:43.171Z,100973.03
2022-08-11T07:29:14.596Z,100958.25
2022-08-11T07:31:43.551Z,100975.84
2022-08-11T07:34:22.055Z,100971.03
2022-08-11T07:36:54.836Z,100974.09
2022-08-11T07:39:25.859Z,100975.84
2022-08-11T07:41:54.928Z,100972.47
2022-08-11T07:44:28.342Z,100943.13
2022-08-11T07:47:16.656Z,100971.91
2022-08-11T07:50:07.307Z,100961.63
2022-08-11T07:52:38.053Z,100963.00
2022-08-11T07:55:13.938Z,100957.97
2022-08-11T07:58:16.500Z,100965.84
2022-08-11T08:01:21.408Z,100957.84
2022-08-11T08:04:09.594Z,100959.34
2022-08-11T08:06:56.620Z,100959.69
2022-08-11T08:09:43.337Z,100966.13
2022-08-11T08:12:29.159Z,100955.91
2022-08-11T08:15:15.881Z,100958.97
2022-08-11T08:18:09.041Z,100959.66
2022-08-11T08:20:47.504Z,100965.13
2022-08-11T08:23:14.965Z,100964.28
2022-08-11T08:25:44.571Z,100940.63
2022-08-11T08:28:15.778Z,100963.69
2022-08-11T08:30:52.711Z,100964.66
2022-08-11T08:33:24.987Z,100956.94
2022-08-11T08:36:11.820Z,100941.16
2022-08-11T08:38:42.807Z,100962.28
2022-08-11T08:41:10.242Z,100962.97
2022-08-11T08:43:48.721Z,100957.72
2022-08-11T08:46:22.218Z,100941.13
2022-08-11T08:48:49.709Z,100957.66
2022-08-11T08:52:01.329Z,100960.72
2022-08-11T08:54:34.021Z,100953.59
2022-08-11T08:57:04.929Z,100939.78
2022-08-11T08:59:47.433Z,100948.06
2022-08-11T09:02:17.500Z,100930.97
2022-08-11T09:04:46.306Z,100953.38
2022-08-11T09:07:16.758Z,100958.72
2022-08-11T09:09:45.239Z,100931.50
2022-08-11T09:12:13.006Z,100926.69
2022-08-11T09:15:02.121Z,100932.03
2022-08-11T09:17:31.466Z,100944.66
2022-08-11T09:20:07.715Z,100942.41
2022-08-11T09:23:41.346Z,100921.84
2022-08-11T09:26:03.503Z,100932.22
2022-08-11T09:28:31.481Z,100898.91
2022-08-11T09:31:01.658Z,100931.63
2022-08-11T09:33:32.702Z,100909.34
2022-08-11T09:36:20.610Z,100917.00
2022-08-11T09:39:06.605Z,100898.78
2022-08-11T09:42:01.015Z,100906.63
2022-08-11T09:44:41.503Z,100916.84
2022-08-11T09:47:15.569Z,100901.00
2022-08-11T09:49:45.408Z,100903.16
2022-08-11T09:52:14.355Z,100909.63
2022-08-11T09:54:42.784Z,100912.38
2022-08-11T09:57:33.846Z,100899.13
2022-08-11T10:00:12.352Z,100910.81
2022-08-11T10:02:53.256Z,100906.34
2022-08-11T10:05:39.466Z,100908.66
2022-08-11T10:08:09.221Z,100912.47
2022-08-11T10:10:37.984Z,100889.59
2022-08-11T10:14:30.157Z,100904.50
2022-08-11T10:16:15.860Z,100902.03
2022-08-11T10:18:52.403Z,100903.34
2022-08-11T10:21:30.749Z,100904.19
2022-08-11T10:24:20.070Z,100907.72
2022-08-11T10:26:55.503Z,100885.94
2022-08-11T10:29:45.137Z,100891.69
2022-08-11T10:32:33.458Z,100894.28
2022-08-11T10:35:13.708Z,100871.06
2022-08-11T10:38:08.004Z,100878.63
2022-08-11T10:40:29.601Z,100874.13
2022-08-11T10:43:13.414Z,100870.53
2022-08-11T10:46:03.093Z,100869.66
2022-08-11T10:48:35.082Z,100860.91
2022-08-11T10:51:14.697Z,100862.50
2022-08-11T10:54:04.006Z,100845.16
2022-08-11T10:56:53.815Z,100875.66
2022-08-11T10:59:22.476Z,100850.34
2022-08-11T11:01:51.266Z,100847.28
2022-08-11T11:04:23.023Z,100842.22
2022-08-11T11:06:53.753Z,100843.88
2022-08-11T11:09:20.425Z,100845.97
2022-08-11T11:12:13.351Z,100834.09
2022-08-11T11:15:01.354Z,100829.72
2022-08-11T11:17:47.950Z,100812.16
2022-08-11T11:20:36.939Z,100834.44
2022-08-11T11:23:10.176Z,100810.72
2022-08-11T11:25:40.920Z,100829.75
2022-08-11T11:28:27.048Z,100809.13
2022-08-11T11:31:22.411Z,100823.91
2022-08-11T11:34:12.538Z,100826.06
2022-08-11T11:36:46.106Z,100796.59
2022-08-11T11:39:13.164Z,100809.00
2022-08-11T11:41:42.232Z,100802.00
2022-08-11T11:44:13.289Z,100791.63
2022-08-11T11:46:41.478Z,100796.00
2022-08-11T11:49:16.806Z,100793.72
2022-08-11T11:51:50.074Z,100790.78
2022-08-11T11:54:18.985Z,100784.47
2022-08-11T11:56:46.235Z,100778.81
2022-08-11T11:59:32.875Z,100770.41
2022-08-11T12:02:00.131Z,100779.81
2022-08-11T12:04:28.159Z,100772.53
2022-08-11T12:07:15.559Z,100747.59
2022-08-11T12:09:42.666Z,100764.03
2022-08-11T12:12:30.394Z,100764.56
2022-08-11T12:14:57.297Z,100760.88
2022-08-11T12:17:24.901Z,100762.31
2022-08-11T12:19:52.821Z,100749.72
2022-08-11T12:22:39.102Z,100738.78
2022-08-11T12:25:25.217Z,100724.34
2022-08-11T12:27:55.397Z,100730.94
2022-08-11T12:30:22.500Z,100740.34
2022-08-11T12:32:49.497Z,100740.16
2022-08-11T12:35:16.831Z,100731.75
2022-08-11T12:37:48.264Z,100738.00
2022-08-11T12:41:11.260Z,100706.78
2022-08-11T12:43:57.007Z,100723.59
2022-08-11T12:46:29.177Z,100723.50
2022-08-11T12:49:18.304Z,100727.97
2022-08-11T12:52:01.619Z,100723.03
2022-08-11T12:54:57.749Z,100716.22
2022-08-11T12:57:43.197Z,100709.84
2022-08-11T13:00:30.195Z,100713.03
2022-08-11T13:03:16.700Z,100706.44
2022-08-11T13:05:44.800Z,100690.56
2022-08-11T13:08:15.050Z,100695.25
2022-08-11T13:11:01.929Z,100703.25
2022-08-11T13:13:54.168Z,100675.41
2022-08-11T13:16:17.826Z,100641.44
2022-08-11T13:18:45.181Z,100689.66
2022-08-11T13:21:20.418Z,100694.22
2022-08-11T13:24:00.511Z,100686.66
2022-08-11T13:26:47.014Z,100694.56
2022-08-11T13:29:24.462Z,100675.88
2022-08-11T13:31:53.659Z,100696.16
2022-08-11T13:34:21.694Z,100687.69
2022-08-11T13:36:52.394Z,100676.53
2022-08-11T13:39:22.886Z,100667.00
2022-08-11T13:41:53.432Z,100679.53
2022-08-11T13:44:25.590Z,100668.78
2022-08-11T13:46:55.854Z,100649.38
2022-08-11T13:49:23.269Z,100667.00
2022-08-11T13:51:52.467Z,100659.44
2022-08-11T13:54:22.839Z,100650.81
2022-08-11T13:56:53.666Z,100663.16
2022-08-11T13:59:23.990Z,100650.91
2022-08-11T14:02:28.395Z,100646.09
2022-08-11T14:04:51.097Z,100634.56
2022-08-11T14:07:22.876Z,100652.97
2022-08-11T14:09:56.797Z,100645.00
2022-08-11T14:12:44.575Z,100616.53
2022-08-11T14:15:20.255Z,100628.88
2022-08-11T14:18:03.354Z,100621.75
2022-08-11T14:20:50.716Z,100617.50
2022-08-11T14:23:20.477Z,100617.00
2022-08-11T14:26:06.323Z,100623.31
2022-08-11T14:28:44.507Z,100618.69
2022-08-11T14:31:14.406Z,100620.63
2022-08-11T14:33:59.949Z,100623.44
2022-08-11T14:36:35.119Z,100626.69
2022-08-11T14:39:06.343Z,100613.41
2022-08-11T14:42:11.437Z,100595.25
2022-08-11T14:45:05.360Z,100605.41
2022-08-11T14:47:35.820Z,100606.28
2022-08-11T14:50:12.298Z,100572.31
2022-08-11T14:52:44.950Z,100591.53
2022-08-11T14:55:32.024Z,100598.69
2022-08-11T14:58:00.314Z,100582.69
2022-08-11T15:00:27.743Z,100591.97
2022-08-11T15:03:11.194Z,100564.75
2022-08-11T15:05:55.857Z,100586.28
2022-08-11T15:08:46.296Z,100563.06
2022-08-11T15:11:33.672Z,100586.84
2022-08-11T15:14:02.619Z,100576.06
2022-08-11T15:16:49.017Z,100555.94
2022-08-11T15:19:19.586Z,100584.19
2022-08-11T15:22:04.856Z,100556.31
2022-08-11T15:24:33.608Z,100565.44
2022-08-11T15:27:20.239Z,100562.03
2022-08-11T15:30:09.115Z,100537.56
2022-08-11T15:33:02.787Z,100529.31
2022-08-11T15:35:49.675Z,100555.28
2022-08-11T15:38:19.898Z,100559.06
2022-08-11T15:41:05.214Z,100541.56
2022-08-11T15:43:59.589Z,100543.00
2022-08-11T15:46:47.355Z,100538.75
2022-08-11T15:50:10.430Z,100541.53
2022-08-11T15:52:23.571Z,100539.59
2022-08-11T15:54:51.748Z,100542.75
2022-08-11T15:57:39.766Z,100516.97
2022-08-11T16:00:26.355Z,100541.91
2022-08-11T16:02:55.213Z,100528.56
2022-08-11T16:05:45.332Z,100534.22
2022-08-11T16:08:15.500Z,100521.16
2022-08-11T16:10:44.073Z,100534.97
2022-08-11T16:13:14.388Z,100524.41
2022-08-11T16:16:04.125Z,100524.78
2022-08-11T16:18:43.094Z,100518.41
2022-08-11T16:21:34.011Z,100522.22
2022-08-11T16:24:03.367Z,100521.13
2022-08-11T16:27:09.080Z,100512.75
2022-08-11T16:29:19.346Z,100500.66
2022-08-11T16:32:08.942Z,100496.88
2022-08-11T16:34:56.368Z,100514.97
2022-08-11T16:37:43.621Z,100510.22
2022-08-11T16:40:11.784Z,100497.75
2022-08-11T16:43:05.208Z,100493.94
2022-08-11T16:45:56.873Z,100494.13
2022-08-11T16:48:35.021Z,100493.94
2022-08-11T16:51:03.459Z,100497.72
2022-08-11T16:53:59.822Z,100493.91
2022-08-11T16:56:27.362Z,100485.22
2022-08-11T16:59:16.967Z,100494.72
2022-08-11T17:01:58.107Z,100482.69
2022-08-11T17:04:58.470Z,100484.16
2022-08-11T17:07:47.293Z,100490.94
2022-08-11T17:10:58.768Z,100482.72
2022-08-11T17:13:40.260Z,100490.53
2022-08-11T17:16:12.887Z,100490.09
2022-08-11T17:18:58.218Z,100464.75
2022-08-11T17:22:00.501Z,100488.16
2022-08-11T17:24:28.728Z,100464.44
2022-08-11T17:26:59.713Z,100485.13
2022-08-11T17:29:34.314Z,100477.06
2022-08-11T17:33:01.330Z,100451.72
2022-08-11T17:35:39.417Z,100452.13
2022-08-11T17:38:18.100Z,100474.25
2022-08-11T17:41:08.145Z,100462.13
2022-08-11T17:43:54.108Z,100465.88
2022-08-11T17:46:40.050Z,100476.84
2022-08-11T17:49:09.392Z,100479.00
2022-08-11T17:51:55.895Z,100475.19
2022-08-11T17:54:53.003Z,100479.53
2022-08-11T17:57:47.511Z,100459.66
2022-08-11T18:00:14.727Z,100454.25
2022-08-11T18:03:03.773Z,100472.69
2022-08-11T18:05:34.011Z,100481.53
2022-08-11T18:08:24.293Z,100490.69
2022-08-11T18:11:11.670Z,100468.25
2022-08-11T18:14:03.952Z,100502.78
2022-08-11T18:16:49.468Z,100498.69
2022-08-11T18:19:35.084Z,100504.06
2022-08-11T18:22:26.843Z,100511.28
2022-08-11T18:25:21.331Z,100508.00
2022-08-11T18:28:08.887Z,100504.06
2022-08-11T18:31:03.496Z,100503.97
2022-08-11T18:34:08.330Z,100502.69
2022-08-11T18:37:19.516Z,100479.28
2022-08-11T18:40:15.136Z,100484.44
2022-08-11T18:43:02.946Z,100508.22
2022-08-11T18:46:05.288Z,100504.25
2022-08-11T18:48:55.479Z,100476.81
2022-08-11T18:51:42.550Z,100516.34
2022-08-11T18:54:30.216Z,100510.59
2022-08-11T18:57:19.147Z,100452.56
2022-08-11T19:00:05.997Z,100511.63
2022-08-11T19:02:55.954Z,100508.69
2022-08-11T19:06:35.579Z,100525.88
2022-08-11T19:08:58.578Z,100530.19
2022-08-11T19:11:45.154Z,100530.31
2022-08-11T19:14:34.105Z,100525.66
2022-08-11T19:17:44.683Z,100538.00
2022-08-11T19:20:29.765Z,100533.44
2022-08-11T19:23:18.569Z,100535.19
2022-08-11T19:26:06.249Z,100521.84
2022-08-11T19:28:54.016Z,100539.00
2022-08-11T19:31:44.373Z,100537.53
2022-08-11T19:34:34.275Z,100539.78
2022-08-11T19:37:24.379Z,100525.38
2022-08-11T19:40:18.486Z,100548.81
2022-08-11T19:43:11.181Z,100554.22
2022-08-11T19:46:11.112Z,100561.88
2022-08-11T19:48:57.824Z,100539.50
2022-08-11T19:51:43.967Z,100559.03
2022-08-11T19:54:30.529Z,100546.47
2022-08-11T19:57:16.185Z,100568.19
2022-08-11T20:00:02.454Z,100562.59
2022-08-11T20:02:47.452Z,100571.25
2022-08-11T20:05:32.725Z,100579.41
2022-08-11T20:08:18.888Z,100569.06
2022-08-11T20:11:07.200Z,100566.50
2022-08-11T20:13:54.254Z,100581.06
2022-08-11T20:16:42.657Z,100583.25
2022-08-11T20:19:56.154Z,100569.50
2022-08-11T20:22:36.297Z,100575.78
2022-08-11T20:25:26.219Z,100581.50
2022-08-11T20:28:15.426Z,100579.28
2022-08-11T20:31:03.907Z,100584.53
2022-08-11T20:33:51.885Z,100586.84
2022-08-11T20:36:37.175Z,100592.06
2022-08-11T20:39:24.588Z,100594.06
2022-08-11T20:42:12.804Z,100596.44
2022-08-11T20:44:59.836Z,100569.88
2022-08-11T20:47:59.508Z,100587.88
2022-08-11T20:50:47.692Z,100599.09
2022-08-11T20:53:39.304Z,100587.03
2022-08-11T20:59:38.549Z,100603.75
2022-08-11T21:02:39.670Z,100595.53
2022-08-11T21:06:10.104Z,100583.09
2022-08-11T21:08:31.138Z,100602.63
2022-08-11T21:11:27.707Z,100584.91
2022-08-11T21:14:15.045Z,100600.16
2022-08-11T21:17:26.759Z,100593.50
2022-08-11T21:20:18.420Z,100587.13
2022-08-11T21:23:10.617Z,100604.94
2022-08-11T21:26:09.920Z,100599.69
2022-08-11T21:28:59.275Z,100605.91
2022-08-11T21:31:47.755Z,100611.47
2022-08-11T21:34:37.292Z,100616.50
2022-08-11T21:37:26.754Z,100620.00
2022-08-11T21:40:17.429Z,100602.53
2022-08-11T21:43:05.599Z,100629.28
2022-08-11T21:45:54.034Z,100596.03
2022-08-11T21:48:41.132Z,100625.69
2022-08-11T21:51:26.389Z,100631.34
2022-08-11T21:54:12.065Z,100632.94
2022-08-11T21:56:58.949Z,100629.91
2022-08-11T21:59:55.786Z,100634.59
2022-08-11T22:02:41.364Z,100639.47
2022-08-11T22:05:28.605Z,100639.06
2022-08-11T22:08:13.813Z,100642.22
2022-08-11T22:10:59.621Z,100620.13
2022-08-11T22:14:05.685Z,100640.28
2022-08-11T22:16:50.492Z,100627.72
2022-08-11T22:19:36.770Z,100613.50
2022-08-11T22:22:26.225Z,100612.84
2022-08-11T22:25:16.714Z,100618.09
2022-08-11T22:28:03.626Z,100641.09
2022-08-11T22:30:49.164Z,100606.59
2022-08-11T22:33:35.573Z,100614.25
2022-08-11T22:36:23.286Z,100612.28
2022-08-11T22:39:09.620Z,100607.78
2022-08-11T22:41:55.369Z,100632.19
2022-08-11T22:44:40.350Z,100640.88
2022-08-11T22:47:31.759Z,100641.75
2022-08-11T22:50:26.934Z,100636.78
2022-08-11T22:53:13.787Z,100629.50
2022-08-11T22:56:00.119Z,100634.34
2022-08-11T22:58:45.716Z,100637.63
2022-08-11T23:01:35.464Z,100644.16
2022-08-11T23:04:21.826Z,100646.56
2022-08-11T23:07:08.513Z,100648.72
2022-08-11T23:09:54.555Z,100607.22
2022-08-11T23:12:40.003Z,100650.13
2022-08-11T23:15:25.939Z,100646.72
2022-08-11T23:18:11.184Z,100625.69
2022-08-11T23:20:59.033Z,100634.22
2022-08-11T23:23:47.514Z,100646.88
2022-08-11T23:26:36.953Z,100623.72
2022-08-11T23:29:24.969Z,100635.63
2022-08-11T23:32:11.361Z,100639.47
2022-08-11T23:35:03.669Z,100615.88
2022-08-11T23:37:51.403Z,100606.25
2022-08-11T23:40:36.834Z,100630.38
2022-08-11T23:43:22.630Z,100627.97
2022-08-11T23:46:07.733Z,100624.28
2022-08-11T23:48:55.700Z,100608.09
2022-08-11T23:51:42.025Z,100611.50
2022-08-11T23:54:32.664Z,100610.34
2022-08-11T23:57:22.505Z,100618.31
